sensor_id;sensor_type;location;lat;lon;timestamp;P1;durP1;ratioP1;P2;durP2;ratioP2
81544;SDS011;70990;50.618;7.346;2023-07-02T00:02:07;6.70;;;3.22;;
81544;SDS011;70990;50.618;7.346;2023-07-02T00:04:34;6.57;;;3.20;;
81544;SDS011;70990;50.618;7.346;2023-07-02T00:07:02;9.00;;;3.40;;
81544;SDS011;70990;50.618;7.346;2023-07-02T00:09:30;7.80;;;3.10;;
81544;SDS011;70990;50.618;7.346;2023-07-02T00:11:57;6.78;;;3.22;;
81544;SDS011;70990;50.618;7.346;2023-07-02T00:14:24;7.05;;;3.00;;
81544;SDS011;70990;50.618;7.346;2023-07-02T00:16:56;9.23;;;3.47;;
81544;SDS011;70990;50.618;7.346;2023-07-02T00:19:23;6.60;;;2.83;;
81544;SDS011;70990;50.618;7.346;2023-07-02T00:21:50;6.03;;;2.55;;
81544;SDS011;70990;50.618;7.346;2023-07-02T00:24:18;9.57;;;3.03;;
81544;SDS011;70990;50.618;7.346;2023-07-02T00:26:46;6.70;;;3.17;;
81544;SDS011;70990;50.618;7.346;2023-07-02T00:29:13;5.90;;;2.40;;
81544;SDS011;70990;50.618;7.346;2023-07-02T00:31:40;8.95;;;2.72;;
81544;SDS011;70990;50.618;7.346;2023-07-02T00:34:08;7.25;;;2.33;;
81544;SDS011;70990;50.618;7.346;2023-07-02T00:36:36;7.85;;;2.72;;
81544;SDS011;70990;50.618;7.346;2023-07-02T00:39:05;7.15;;;2.42;;
81544;SDS011;70990;50.618;7.346;2023-07-02T00:41:34;7.53;;;2.92;;
81544;SDS011;70990;50.618;7.346;2023-07-02T00:44:01;5.70;;;2.88;;
81544;SDS011;70990;50.618;7.346;2023-07-02T00:46:28;6.18;;;3.05;;
81544;SDS011;70990;50.618;7.346;2023-07-02T00:48:57;7.50;;;2.95;;
81544;SDS011;70990;50.618;7.346;2023-07-02T00:51:33;7.32;;;3.00;;
81544;SDS011;70990;50.618;7.346;2023-07-02T00:54:00;5.57;;;2.03;;
81544;SDS011;70990;50.618;7.346;2023-07-02T00:56:27;7.10;;;2.70;;
81544;SDS011;70990;50.618;7.346;2023-07-02T00:58:54;5.18;;;2.70;;
81544;SDS011;70990;50.618;7.346;2023-07-02T01:01:24;5.50;;;2.28;;
81544;SDS011;70990;50.618;7.346;2023-07-02T01:03:58;5.93;;;2.28;;
81544;SDS011;70990;50.618;7.346;2023-07-02T01:06:32;5.00;;;2.35;;
81544;SDS011;70990;50.618;7.346;2023-07-02T01:09:03;6.25;;;2.20;;
81544;SDS011;70990;50.618;7.346;2023-07-02T01:14:08;5.72;;;2.38;;
81544;SDS011;70990;50.618;7.346;2023-07-02T01:16:43;7.05;;;2.25;;
81544;SDS011;70990;50.618;7.346;2023-07-02T01:19:11;5.65;;;2.67;;
81544;SDS011;70990;50.618;7.346;2023-07-02T01:21:49;18.38;;;3.20;;
81544;SDS011;70990;50.618;7.346;2023-07-02T01:24:16;5.53;;;2.58;;
81544;SDS011;70990;50.618;7.346;2023-07-02T01:26:47;5.60;;;2.50;;
81544;SDS011;70990;50.618;7.346;2023-07-02T01:29:17;6.65;;;3.08;;
81544;SDS011;70990;50.618;7.346;2023-07-02T01:31:45;7.90;;;3.38;;
81544;SDS011;70990;50.618;7.346;2023-07-02T01:34:13;11.40;;;4.40;;
81544;SDS011;70990;50.618;7.346;2023-07-02T01:36:43;11.70;;;4.72;;
81544;SDS011;70990;50.618;7.346;2023-07-02T01:39:13;10.07;;;4.35;;
81544;SDS011;70990;50.618;7.346;2023-07-02T01:44:18;9.02;;;5.15;;
81544;SDS011;70990;50.618;7.346;2023-07-02T01:46:46;11.13;;;5.55;;
81544;SDS011;70990;50.618;7.346;2023-07-02T01:49:14;9.07;;;5.20;;
81544;SDS011;70990;50.618;7.346;2023-07-02T01:51:44;11.40;;;5.47;;
81544;SDS011;70990;50.618;7.346;2023-07-02T01:56:38;10.10;;;4.43;;
81544;SDS011;70990;50.618;7.346;2023-07-02T01:59:05;9.13;;;4.40;;
81544;SDS011;70990;50.618;7.346;2023-07-02T02:01:39;7.90;;;3.92;;
81544;SDS011;70990;50.618;7.346;2023-07-02T02:04:17;8.75;;;3.42;;
81544;SDS011;70990;50.618;7.346;2023-07-02T02:06:53;8.07;;;3.45;;
81544;SDS011;70990;50.618;7.346;2023-07-02T02:09:20;7.72;;;3.13;;
81544;SDS011;70990;50.618;7.346;2023-07-02T02:11:48;5.90;;;2.35;;
81544;SDS011;70990;50.618;7.346;2023-07-02T02:14:16;11.32;;;2.85;;
81544;SDS011;70990;50.618;7.346;2023-07-02T02:16:43;6.28;;;2.50;;
81544;SDS011;70990;50.618;7.346;2023-07-02T02:19:11;8.50;;;2.60;;
81544;SDS011;70990;50.618;7.346;2023-07-02T02:21:39;7.68;;;2.80;;
81544;SDS011;70990;50.618;7.346;2023-07-02T02:24:07;12.05;;;3.10;;
81544;SDS011;70990;50.618;7.346;2023-07-02T02:26:34;7.05;;;3.05;;
81544;SDS011;70990;50.618;7.346;2023-07-02T02:29:02;9.75;;;3.17;;
81544;SDS011;70990;50.618;7.346;2023-07-02T02:31:30;9.18;;;2.92;;
81544;SDS011;70990;50.618;7.346;2023-07-02T02:33:59;7.47;;;3.13;;
81544;SDS011;70990;50.618;7.346;2023-07-02T02:36:28;7.65;;;3.45;;
81544;SDS011;70990;50.618;7.346;2023-07-02T02:41:30;9.63;;;3.20;;
81544;SDS011;70990;50.618;7.346;2023-07-02T02:43:57;9.10;;;3.10;;
81544;SDS011;70990;50.618;7.346;2023-07-02T02:46:24;8.43;;;3.00;;
81544;SDS011;70990;50.618;7.346;2023-07-02T02:48:52;12.05;;;3.70;;
81544;SDS011;70990;50.618;7.346;2023-07-02T02:51:20;13.27;;;4.10;;
81544;SDS011;70990;50.618;7.346;2023-07-02T02:53:49;9.93;;;3.50;;
81544;SDS011;70990;50.618;7.346;2023-07-02T02:56:16;12.45;;;4.38;;
81544;SDS011;70990;50.618;7.346;2023-07-02T02:58:45;10.77;;;4.13;;
81544;SDS011;70990;50.618;7.346;2023-07-02T03:01:12;13.65;;;4.43;;
81544;SDS011;70990;50.618;7.346;2023-07-02T03:03:40;13.18;;;3.97;;
81544;SDS011;70990;50.618;7.346;2023-07-02T03:06:07;12.18;;;4.22;;
81544;SDS011;70990;50.618;7.346;2023-07-02T03:08:34;13.32;;;4.57;;
81544;SDS011;70990;50.618;7.346;2023-07-02T03:11:01;11.68;;;4.38;;
81544;SDS011;70990;50.618;7.346;2023-07-02T03:13:28;13.82;;;4.05;;
81544;SDS011;70990;50.618;7.346;2023-07-02T03:15:56;11.43;;;3.95;;
81544;SDS011;70990;50.618;7.346;2023-07-02T03:18:23;12.25;;;4.07;;
81544;SDS011;70990;50.618;7.346;2023-07-02T03:20:49;11.90;;;4.20;;
81544;SDS011;70990;50.618;7.346;2023-07-02T03:23:16;14.70;;;4.88;;
81544;SDS011;70990;50.618;7.346;2023-07-02T03:25:44;12.45;;;4.10;;
81544;SDS011;70990;50.618;7.346;2023-07-02T03:28:11;9.50;;;4.43;;
81544;SDS011;70990;50.618;7.346;2023-07-02T03:30:41;14.65;;;4.95;;
81544;SDS011;70990;50.618;7.346;2023-07-02T03:33:08;12.48;;;4.82;;
81544;SDS011;70990;50.618;7.346;2023-07-02T03:35:35;14.23;;;5.22;;
81544;SDS011;70990;50.618;7.346;2023-07-02T03:38:03;14.50;;;4.75;;
81544;SDS011;70990;50.618;7.346;2023-07-02T03:40:31;13.95;;;4.50;;
81544;SDS011;70990;50.618;7.346;2023-07-02T03:42:57;11.82;;;4.60;;
81544;SDS011;70990;50.618;7.346;2023-07-02T03:45:24;14.18;;;5.15;;
81544;SDS011;70990;50.618;7.346;2023-07-02T03:47:51;13.48;;;5.15;;
81544;SDS011;70990;50.618;7.346;2023-07-02T03:50:18;11.65;;;5.07;;
81544;SDS011;70990;50.618;7.346;2023-07-02T03:52:44;14.88;;;5.10;;
81544;SDS011;70990;50.618;7.346;2023-07-02T03:55:11;14.32;;;4.97;;
81544;SDS011;70990;50.618;7.346;2023-07-02T03:57:38;13.15;;;5.60;;
81544;SDS011;70990;50.618;7.346;2023-07-02T04:00:04;13.02;;;5.45;;
81544;SDS011;70990;50.618;7.346;2023-07-02T04:02:39;13.80;;;5.47;;
81544;SDS011;70990;50.618;7.346;2023-07-02T04:05:07;13.05;;;5.85;;
81544;SDS011;70990;50.618;7.346;2023-07-02T04:07:33;14.98;;;5.68;;
81544;SDS011;70990;50.618;7.346;2023-07-02T04:10:00;12.90;;;4.93;;
81544;SDS011;70990;50.618;7.346;2023-07-02T04:12:27;16.95;;;6.45;;
81544;SDS011;70990;50.618;7.346;2023-07-02T04:14:54;11.95;;;5.00;;
81544;SDS011;70990;50.618;7.346;2023-07-02T04:17:20;15.27;;;5.40;;
81544;SDS011;70990;50.618;7.346;2023-07-02T04:19:47;13.25;;;5.40;;
81544;SDS011;70990;50.618;7.346;2023-07-02T04:22:14;16.55;;;6.22;;
81544;SDS011;70990;50.618;7.346;2023-07-02T04:24:41;14.65;;;5.85;;
81544;SDS011;70990;50.618;7.346;2023-07-02T04:27:11;17.88;;;5.63;;
81544;SDS011;70990;50.618;7.346;2023-07-02T04:29:58;15.75;;;6.50;;
81544;SDS011;70990;50.618;7.346;2023-07-02T04:32:24;13.00;;;5.47;;
81544;SDS011;70990;50.618;7.346;2023-07-02T04:34:51;14.07;;;5.95;;
81544;SDS011;70990;50.618;7.346;2023-07-02T04:37:17;14.77;;;5.90;;
81544;SDS011;70990;50.618;7.346;2023-07-02T04:39:44;15.48;;;6.20;;
81544;SDS011;70990;50.618;7.346;2023-07-02T04:42:11;13.77;;;5.50;;
81544;SDS011;70990;50.618;7.346;2023-07-02T04:44:38;16.38;;;6.45;;
81544;SDS011;70990;50.618;7.346;2023-07-02T04:47:11;14.38;;;5.82;;
81544;SDS011;70990;50.618;7.346;2023-07-02T04:49:40;19.77;;;6.53;;
81544;SDS011;70990;50.618;7.346;2023-07-02T04:52:07;19.35;;;6.97;;
81544;SDS011;70990;50.618;7.346;2023-07-02T04:54:34;19.25;;;7.30;;
81544;SDS011;70990;50.618;7.346;2023-07-02T04:57:00;21.17;;;6.75;;
81544;SDS011;70990;50.618;7.346;2023-07-02T04:59:27;19.60;;;7.45;;
81544;SDS011;70990;50.618;7.346;2023-07-02T05:01:54;16.77;;;6.28;;
81544;SDS011;70990;50.618;7.346;2023-07-02T05:04:20;15.68;;;6.30;;
81544;SDS011;70990;50.618;7.346;2023-07-02T05:06:50;19.80;;;6.25;;
81544;SDS011;70990;50.618;7.346;2023-07-02T05:09:17;20.20;;;7.30;;
81544;SDS011;70990;50.618;7.346;2023-07-02T05:11:44;21.67;;;6.82;;
81544;SDS011;70990;50.618;7.346;2023-07-02T05:14:11;19.30;;;6.80;;
81544;SDS011;70990;50.618;7.346;2023-07-02T05:16:37;20.13;;;7.50;;
81544;SDS011;70990;50.618;7.346;2023-07-02T05:19:04;26.92;;;7.57;;
81544;SDS011;70990;50.618;7.346;2023-07-02T05:21:31;21.48;;;7.43;;
81544;SDS011;70990;50.618;7.346;2023-07-02T05:23:57;19.02;;;7.20;;
81544;SDS011;70990;50.618;7.346;2023-07-02T05:26:24;18.52;;;7.13;;
81544;SDS011;70990;50.618;7.346;2023-07-02T05:28:51;15.88;;;7.00;;
81544;SDS011;70990;50.618;7.346;2023-07-02T05:31:28;24.55;;;7.32;;
81544;SDS011;70990;50.618;7.346;2023-07-02T05:34:17;22.08;;;7.90;;
81544;SDS011;70990;50.618;7.346;2023-07-02T05:36:56;21.55;;;7.95;;
81544;SDS011;70990;50.618;7.346;2023-07-02T05:39:29;17.48;;;7.22;;
81544;SDS011;70990;50.618;7.346;2023-07-02T05:42:02;18.45;;;7.60;;
81544;SDS011;70990;50.618;7.346;2023-07-02T05:44:42;18.27;;;7.82;;
81544;SDS011;70990;50.618;7.346;2023-07-02T05:47:20;20.95;;;8.25;;
81544;SDS011;70990;50.618;7.346;2023-07-02T05:49:57;20.67;;;6.97;;
81544;SDS011;70990;50.618;7.346;2023-07-02T05:52:29;22.88;;;7.53;;
81544;SDS011;70990;50.618;7.346;2023-07-02T05:55:00;21.42;;;8.25;;
81544;SDS011;70990;50.618;7.346;2023-07-02T05:57:29;20.08;;;8.38;;
81544;SDS011;70990;50.618;7.346;2023-07-02T05:59:58;19.90;;;7.57;;
81544;SDS011;70990;50.618;7.346;2023-07-02T06:02:37;20.65;;;7.82;;
81544;SDS011;70990;50.618;7.346;2023-07-02T06:05:04;24.45;;;8.73;;
81544;SDS011;70990;50.618;7.346;2023-07-02T06:07:32;18.92;;;8.45;;
81544;SDS011;70990;50.618;7.346;2023-07-02T06:10:01;22.83;;;8.93;;
81544;SDS011;70990;50.618;7.346;2023-07-02T06:12:33;23.40;;;8.52;;
81544;SDS011;70990;50.618;7.346;2023-07-02T06:15:03;21.50;;;8.93;;
81544;SDS011;70990;50.618;7.346;2023-07-02T06:17:31;17.83;;;8.20;;
81544;SDS011;70990;50.618;7.346;2023-07-02T06:20:02;22.50;;;8.43;;
81544;SDS011;70990;50.618;7.346;2023-07-02T06:22:30;18.90;;;8.68;;
81544;SDS011;70990;50.618;7.346;2023-07-02T06:25:00;21.10;;;8.02;;
81544;SDS011;70990;50.618;7.346;2023-07-02T06:27:31;25.58;;;8.43;;
81544;SDS011;70990;50.618;7.346;2023-07-02T06:30:07;26.67;;;9.02;;
81544;SDS011;70990;50.618;7.346;2023-07-02T06:33:32;21.05;;;8.10;;
81544;SDS011;70990;50.618;7.346;2023-07-02T06:36:16;18.00;;;7.90;;
81544;SDS011;70990;50.618;7.346;2023-07-02T06:40:03;22.88;;;8.20;;
81544;SDS011;70990;50.618;7.346;2023-07-02T06:42:38;22.73;;;8.38;;
81544;SDS011;70990;50.618;7.346;2023-07-02T06:45:11;24.27;;;7.95;;
81544;SDS011;70990;50.618;7.346;2023-07-02T06:48:07;21.30;;;8.48;;
81544;SDS011;70990;50.618;7.346;2023-07-02T06:54:06;20.85;;;8.88;;
81544;SDS011;70990;50.618;7.346;2023-07-02T06:56:32;24.00;;;9.27;;
81544;SDS011;70990;50.618;7.346;2023-07-02T06:59:00;25.45;;;9.32;;
81544;SDS011;70990;50.618;7.346;2023-07-02T07:01:27;24.42;;;8.52;;
81544;SDS011;70990;50.618;7.346;2023-07-02T07:03:54;23.65;;;9.18;;
81544;SDS011;70990;50.618;7.346;2023-07-02T07:06:21;21.30;;;8.35;;
81544;SDS011;70990;50.618;7.346;2023-07-02T07:08:47;25.23;;;8.40;;
81544;SDS011;70990;50.618;7.346;2023-07-02T07:11:14;21.55;;;8.48;;
81544;SDS011;70990;50.618;7.346;2023-07-02T07:13:41;22.67;;;9.38;;
81544;SDS011;70990;50.618;7.346;2023-07-02T07:16:07;24.55;;;8.75;;
81544;SDS011;70990;50.618;7.346;2023-07-02T07:18:34;22.40;;;8.90;;
81544;SDS011;70990;50.618;7.346;2023-07-02T07:21:03;17.25;;;7.88;;
81544;SDS011;70990;50.618;7.346;2023-07-02T07:23:29;26.30;;;9.35;;
81544;SDS011;70990;50.618;7.346;2023-07-02T07:25:56;30.67;;;9.20;;
81544;SDS011;70990;50.618;7.346;2023-07-02T07:28:24;18.65;;;7.38;;
81544;SDS011;70990;50.618;7.346;2023-07-02T07:30:50;20.77;;;8.40;;
81544;SDS011;70990;50.618;7.346;2023-07-02T07:33:17;20.75;;;8.30;;
81544;SDS011;70990;50.618;7.346;2023-07-02T07:35:44;18.77;;;7.93;;
81544;SDS011;70990;50.618;7.346;2023-07-02T07:38:19;20.27;;;8.77;;
81544;SDS011;70990;50.618;7.346;2023-07-02T07:40:46;21.73;;;7.95;;
81544;SDS011;70990;50.618;7.346;2023-07-02T07:43:24;21.25;;;7.47;;
81544;SDS011;70990;50.618;7.346;2023-07-02T07:45:51;15.68;;;7.22;;
81544;SDS011;70990;50.618;7.346;2023-07-02T07:48:21;18.27;;;8.02;;
81544;SDS011;70990;50.618;7.346;2023-07-02T07:50:48;19.13;;;8.70;;
81544;SDS011;70990;50.618;7.346;2023-07-02T07:53:26;21.45;;;8.00;;
81544;SDS011;70990;50.618;7.346;2023-07-02T07:56:14;22.02;;;7.97;;
81544;SDS011;70990;50.618;7.346;2023-07-02T07:58:45;20.15;;;7.40;;
81544;SDS011;70990;50.618;7.346;2023-07-02T08:01:12;21.70;;;8.13;;
81544;SDS011;70990;50.618;7.346;2023-07-02T08:03:39;20.30;;;8.32;;
81544;SDS011;70990;50.618;7.346;2023-07-02T08:06:09;21.13;;;8.45;;
81544;SDS011;70990;50.618;7.346;2023-07-02T08:08:36;17.98;;;8.02;;
81544;SDS011;70990;50.618;7.346;2023-07-02T08:11:03;26.63;;;8.77;;
81544;SDS011;70990;50.618;7.346;2023-07-02T08:13:29;24.55;;;7.78;;
81544;SDS011;70990;50.618;7.346;2023-07-02T08:15:56;25.55;;;7.18;;
81544;SDS011;70990;50.618;7.346;2023-07-02T08:18:22;23.55;;;7.50;;
81544;SDS011;70990;50.618;7.346;2023-07-02T08:20:49;21.73;;;7.90;;
81544;SDS011;70990;50.618;7.346;2023-07-02T08:23:16;15.77;;;7.32;;
81544;SDS011;70990;50.618;7.346;2023-07-02T08:25:45;20.85;;;7.35;;
81544;SDS011;70990;50.618;7.346;2023-07-02T08:28:12;18.83;;;7.07;;
81544;SDS011;70990;50.618;7.346;2023-07-02T08:30:42;14.32;;;6.35;;
81544;SDS011;70990;50.618;7.346;2023-07-02T08:33:08;18.85;;;7.60;;
81544;SDS011;70990;50.618;7.346;2023-07-02T08:35:38;16.65;;;6.40;;
81544;SDS011;70990;50.618;7.346;2023-07-02T08:38:05;15.68;;;7.13;;
81544;SDS011;70990;50.618;7.346;2023-07-02T08:40:32;17.98;;;5.68;;
81544;SDS011;70990;50.618;7.346;2023-07-02T08:42:58;17.25;;;5.65;;
81544;SDS011;70990;50.618;7.346;2023-07-02T08:45:27;18.25;;;6.53;;
81544;SDS011;70990;50.618;7.346;2023-07-02T08:47:54;15.75;;;4.95;;
81544;SDS011;70990;50.618;7.346;2023-07-02T08:50:22;17.52;;;6.43;;
81544;SDS011;70990;50.618;7.346;2023-07-02T08:52:49;15.90;;;6.13;;
81544;SDS011;70990;50.618;7.346;2023-07-02T08:55:18;15.60;;;5.55;;
81544;SDS011;70990;50.618;7.346;2023-07-02T08:57:47;13.60;;;4.97;;
81544;SDS011;70990;50.618;7.346;2023-07-02T09:00:19;15.63;;;6.53;;
81544;SDS011;70990;50.618;7.346;2023-07-02T09:02:50;11.63;;;5.18;;
81544;SDS011;70990;50.618;7.346;2023-07-02T09:05:17;15.43;;;5.68;;
81544;SDS011;70990;50.618;7.346;2023-07-02T09:07:47;16.75;;;5.18;;
81544;SDS011;70990;50.618;7.346;2023-07-02T09:10:27;15.32;;;4.85;;
81544;SDS011;70990;50.618;7.346;2023-07-02T09:13:06;17.25;;;6.13;;
81544;SDS011;70990;50.618;7.346;2023-07-02T09:18:43;13.00;;;5.85;;
81544;SDS011;70990;50.618;7.346;2023-07-02T09:21:10;17.70;;;5.82;;
81544;SDS011;70990;50.618;7.346;2023-07-02T09:23:37;20.38;;;6.70;;
81544;SDS011;70990;50.618;7.346;2023-07-02T11:28:21;13.73;;;6.13;;
81544;SDS011;70990;50.618;7.346;2023-07-02T11:31:09;16.27;;;6.05;;
81544;SDS011;70990;50.618;7.346;2023-07-02T11:33:39;13.50;;;5.70;;
81544;SDS011;70990;50.618;7.346;2023-07-02T11:36:07;17.27;;;5.97;;
81544;SDS011;70990;50.618;7.346;2023-07-02T11:38:45;13.50;;;5.78;;
81544;SDS011;70990;50.618;7.346;2023-07-02T11:41:12;12.18;;;5.72;;
81544;SDS011;70990;50.618;7.346;2023-07-02T11:43:47;14.85;;;5.75;;
81544;SDS011;70990;50.618;7.346;2023-07-02T11:46:17;16.25;;;5.82;;
81544;SDS011;70990;50.618;7.346;2023-07-02T11:48:44;16.90;;;5.80;;
81544;SDS011;70990;50.618;7.346;2023-07-02T11:51:13;14.93;;;6.30;;
81544;SDS011;70990;50.618;7.346;2023-07-02T11:53:40;16.75;;;6.90;;
81544;SDS011;70990;50.618;7.346;2023-07-02T11:56:06;16.20;;;5.90;;
81544;SDS011;70990;50.618;7.346;2023-07-02T11:58:33;20.15;;;7.65;;
81544;SDS011;70990;50.618;7.346;2023-07-02T12:01:00;15.35;;;5.80;;
81544;SDS011;70990;50.618;7.346;2023-07-02T12:03:26;17.63;;;6.45;;
81544;SDS011;70990;50.618;7.346;2023-07-02T12:05:53;16.55;;;6.57;;
81544;SDS011;70990;50.618;7.346;2023-07-02T12:08:20;16.38;;;6.97;;
81544;SDS011;70990;50.618;7.346;2023-07-02T12:10:52;16.17;;;6.43;;
81544;SDS011;70990;50.618;7.346;2023-07-02T12:13:19;16.83;;;5.80;;
81544;SDS011;70990;50.618;7.346;2023-07-02T12:15:49;14.32;;;5.68;;
81544;SDS011;70990;50.618;7.346;2023-07-02T12:18:24;15.23;;;5.53;;
81544;SDS011;70990;50.618;7.346;2023-07-02T12:20:54;18.60;;;6.07;;
81544;SDS011;70990;50.618;7.346;2023-07-02T12:23:30;15.15;;;6.13;;
81544;SDS011;70990;50.618;7.346;2023-07-02T12:26:03;15.52;;;6.70;;
81544;SDS011;70990;50.618;7.346;2023-07-02T12:28:35;12.75;;;5.93;;
81544;SDS011;70990;50.618;7.346;2023-07-02T12:31:05;16.10;;;6.82;;
81544;SDS011;70990;50.618;7.346;2023-07-02T12:33:36;14.50;;;6.20;;
81544;SDS011;70990;50.618;7.346;2023-07-02T12:39:07;18.63;;;6.60;;
81544;SDS011;70990;50.618;7.346;2023-07-02T12:41:37;14.27;;;6.00;;
81544;SDS011;70990;50.618;7.346;2023-07-02T12:44:09;15.07;;;6.93;;
81544;SDS011;70990;50.618;7.346;2023-07-02T12:46:36;13.65;;;6.20;;
81544;SDS011;70990;50.618;7.346;2023-07-02T12:49:03;15.68;;;6.25;;
81544;SDS011;70990;50.618;7.346;2023-07-02T12:51:35;19.40;;;5.97;;
81544;SDS011;70990;50.618;7.346;2023-07-02T12:54:05;18.55;;;6.80;;
81544;SDS011;70990;50.618;7.346;2023-07-02T12:56:32;17.65;;;6.25;;
81544;SDS011;70990;50.618;7.346;2023-07-02T12:59:01;18.30;;;6.90;;
81544;SDS011;70990;50.618;7.346;2023-07-02T13:01:28;19.20;;;7.13;;
81544;SDS011;70990;50.618;7.346;2023-07-02T13:03:55;16.38;;;6.63;;
81544;SDS011;70990;50.618;7.346;2023-07-02T13:06:32;15.48;;;6.43;;
81544;SDS011;70990;50.618;7.346;2023-07-02T13:09:06;16.10;;;7.55;;
81544;SDS011;70990;50.618;7.346;2023-07-02T13:11:57;15.20;;;6.20;;
81544;SDS011;70990;50.618;7.346;2023-07-02T13:20:40;15.15;;;6.78;;
81544;SDS011;70990;50.618;7.346;2023-07-02T13:23:31;19.33;;;6.55;;
81544;SDS011;70990;50.618;7.346;2023-07-02T13:26:00;16.30;;;6.35;;
81544;SDS011;70990;50.618;7.346;2023-07-02T13:28:27;19.02;;;7.22;;
81544;SDS011;70990;50.618;7.346;2023-07-02T13:30:56;18.17;;;6.50;;
81544;SDS011;70990;50.618;7.346;2023-07-02T13:33:31;15.07;;;6.95;;
81544;SDS011;70990;50.618;7.346;2023-07-02T13:36:01;19.52;;;6.70;;
81544;SDS011;70990;50.618;7.346;2023-07-02T13:38:30;15.35;;;6.28;;
81544;SDS011;70990;50.618;7.346;2023-07-02T13:41:19;15.82;;;6.25;;
81544;SDS011;70990;50.618;7.346;2023-07-02T13:43:51;16.10;;;6.97;;
81544;SDS011;70990;50.618;7.346;2023-07-02T14:07:07;16.17;;;6.60;;
81544;SDS011;70990;50.618;7.346;2023-07-02T14:20:44;17.08;;;7.53;;
81544;SDS011;70990;50.618;7.346;2023-07-02T14:23:12;17.77;;;7.25;;
81544;SDS011;70990;50.618;7.346;2023-07-02T14:29:33;15.85;;;6.10;;
81544;SDS011;70990;50.618;7.346;2023-07-02T14:35:48;15.80;;;6.88;;
81544;SDS011;70990;50.618;7.346;2023-07-02T14:43:26;16.48;;;6.32;;
81544;SDS011;70990;50.618;7.346;2023-07-02T14:46:10;18.80;;;6.18;;
81544;SDS011;70990;50.618;7.346;2023-07-02T14:48:46;14.30;;;6.28;;
81544;SDS011;70990;50.618;7.346;2023-07-02T14:51:31;15.35;;;6.22;;
81544;SDS011;70990;50.618;7.346;2023-07-02T14:54:10;17.88;;;6.35;;
81544;SDS011;70990;50.618;7.346;2023-07-02T14:56:50;20.45;;;7.28;;
81544;SDS011;70990;50.618;7.346;2023-07-02T15:02:54;16.27;;;8.35;;
81544;SDS011;70990;50.618;7.346;2023-07-02T15:05:37;14.07;;;6.20;;
81544;SDS011;70990;50.618;7.346;2023-07-02T15:09:12;19.00;;;7.22;;
81544;SDS011;70990;50.618;7.346;2023-07-02T15:12:39;13.27;;;5.85;;
81544;SDS011;70990;50.618;7.346;2023-07-02T15:15:15;15.85;;;5.80;;
81544;SDS011;70990;50.618;7.346;2023-07-02T15:18:00;13.13;;;5.78;;
81544;SDS011;70990;50.618;7.346;2023-07-02T15:39:37;17.70;;;6.43;;
81544;SDS011;70990;50.618;7.346;2023-07-02T15:42:33;15.50;;;6.85;;
81544;SDS011;70990;50.618;7.346;2023-07-02T15:45:19;13.85;;;6.50;;
81544;SDS011;70990;50.618;7.346;2023-07-02T15:47:53;16.90;;;6.68;;
81544;SDS011;70990;50.618;7.346;2023-07-02T15:50:26;15.20;;;5.75;;
81544;SDS011;70990;50.618;7.346;2023-07-02T15:52:58;15.95;;;6.80;;
81544;SDS011;70990;50.618;7.346;2023-07-02T15:55:33;13.30;;;5.70;;
81544;SDS011;70990;50.618;7.346;2023-07-02T16:01:32;15.20;;;5.78;;
81544;SDS011;70990;50.618;7.346;2023-07-02T16:04:31;17.02;;;6.03;;
81544;SDS011;70990;50.618;7.346;2023-07-02T16:07:10;12.98;;;5.95;;
81544;SDS011;70990;50.618;7.346;2023-07-02T16:10:48;13.85;;;5.25;;
81544;SDS011;70990;50.618;7.346;2023-07-02T16:13:27;14.88;;;6.07;;
81544;SDS011;70990;50.618;7.346;2023-07-02T16:23:32;12.75;;;5.57;;
81544;SDS011;70990;50.618;7.346;2023-07-02T16:33:33;14.40;;;5.40;;
81544;SDS011;70990;50.618;7.346;2023-07-02T16:36:03;14.60;;;5.78;;
81544;SDS011;70990;50.618;7.346;2023-07-02T16:43:22;19.02;;;6.00;;
81544;SDS011;70990;50.618;7.346;2023-07-02T16:46:21;14.20;;;5.47;;
81544;SDS011;70990;50.618;7.346;2023-07-02T16:48:50;15.73;;;5.38;;
81544;SDS011;70990;50.618;7.346;2023-07-02T16:51:43;12.80;;;4.95;;
81544;SDS011;70990;50.618;7.346;2023-07-02T16:54:26;14.07;;;5.22;;
81544;SDS011;70990;50.618;7.346;2023-07-02T17:00:44;12.80;;;4.72;;
81544;SDS011;70990;50.618;7.346;2023-07-02T17:07:01;12.90;;;4.53;;
81544;SDS011;70990;50.618;7.346;2023-07-02T17:13:18;13.32;;;5.03;;
81544;SDS011;70990;50.618;7.346;2023-07-02T17:16:36;13.95;;;5.35;;
81544;SDS011;70990;50.618;7.346;2023-07-02T17:19:03;17.23;;;5.97;;
81544;SDS011;70990;50.618;7.346;2023-07-02T17:21:53;14.30;;;5.45;;
81544;SDS011;70990;50.618;7.346;2023-07-02T17:24:39;12.50;;;5.38;;
81544;SDS011;70990;50.618;7.346;2023-07-02T17:27:42;14.38;;;5.47;;
81544;SDS011;70990;50.618;7.346;2023-07-02T17:30:14;14.93;;;5.55;;
81544;SDS011;70990;50.618;7.346;2023-07-02T17:33:20;19.13;;;5.40;;
81544;SDS011;70990;50.618;7.346;2023-07-02T17:36:08;12.98;;;5.22;;
81544;SDS011;70990;50.618;7.346;2023-07-02T17:42:10;16.25;;;5.40;;
81544;SDS011;70990;50.618;7.346;2023-07-02T17:44:43;13.82;;;5.20;;
81544;SDS011;70990;50.618;7.346;2023-07-02T17:47:27;15.73;;;5.97;;
81544;SDS011;70990;50.618;7.346;2023-07-02T17:49:59;17.33;;;4.65;;
81544;SDS011;70990;50.618;7.346;2023-07-02T17:52:29;12.82;;;4.65;;
81544;SDS011;70990;50.618;7.346;2023-07-02T17:55:30;12.57;;;4.95;;
81544;SDS011;70990;50.618;7.346;2023-07-02T18:01:12;13.70;;;4.75;;
81544;SDS011;70990;50.618;7.346;2023-07-02T18:03:42;16.35;;;5.90;;
81544;SDS011;70990;50.618;7.346;2023-07-02T18:06:09;16.42;;;5.15;;
81544;SDS011;70990;50.618;7.346;2023-07-02T18:08:36;15.45;;;5.10;;
81544;SDS011;70990;50.618;7.346;2023-07-02T18:11:10;14.35;;;4.57;;
81544;SDS011;70990;50.618;7.346;2023-07-02T18:13:53;16.30;;;4.75;;
81544;SDS011;70990;50.618;7.346;2023-07-02T18:16:34;13.63;;;4.82;;
81544;SDS011;70990;50.618;7.346;2023-07-02T18:51:21;17.25;;;5.72;;
81544;SDS011;70990;50.618;7.346;2023-07-02T18:54:12;14.02;;;4.72;;
81544;SDS011;70990;50.618;7.346;2023-07-02T18:56:39;20.08;;;5.18;;
81544;SDS011;70990;50.618;7.346;2023-07-02T19:03:16;11.25;;;4.57;;
81544;SDS011;70990;50.618;7.346;2023-07-02T19:06:56;14.85;;;4.53;;
81544;SDS011;70990;50.618;7.346;2023-07-02T19:10:02;13.68;;;4.55;;
81544;SDS011;70990;50.618;7.346;2023-07-02T19:12:29;12.45;;;4.90;;
81544;SDS011;70990;50.618;7.346;2023-07-02T19:14:57;13.95;;;4.93;;
81544;SDS011;70990;50.618;7.346;2023-07-02T19:17:24;14.77;;;5.38;;
81544;SDS011;70990;50.618;7.346;2023-07-02T19:19:51;13.32;;;4.45;;
81544;SDS011;70990;50.618;7.346;2023-07-02T19:22:18;13.15;;;4.43;;
81544;SDS011;70990;50.618;7.346;2023-07-02T19:24:47;15.73;;;4.65;;
81544;SDS011;70990;50.618;7.346;2023-07-02T19:27:14;13.15;;;5.05;;
81544;SDS011;70990;50.618;7.346;2023-07-02T19:29:42;12.50;;;4.72;;
81544;SDS011;70990;50.618;7.346;2023-07-02T19:32:12;16.23;;;5.13;;
81544;SDS011;70990;50.618;7.346;2023-07-02T19:34:39;16.33;;;5.32;;
81544;SDS011;70990;50.618;7.346;2023-07-02T19:37:08;15.00;;;5.13;;
81544;SDS011;70990;50.618;7.346;2023-07-02T19:39:35;13.98;;;4.13;;
81544;SDS011;70990;50.618;7.346;2023-07-02T19:42:02;15.80;;;4.53;;
81544;SDS011;70990;50.618;7.346;2023-07-02T19:44:29;13.82;;;4.53;;
81544;SDS011;70990;50.618;7.346;2023-07-02T19:46:56;12.68;;;3.95;;
81544;SDS011;70990;50.618;7.346;2023-07-02T19:49:23;12.35;;;4.03;;
81544;SDS011;70990;50.618;7.346;2023-07-02T19:51:50;14.95;;;5.05;;
81544;SDS011;70990;50.618;7.346;2023-07-02T19:54:17;12.63;;;4.22;;
81544;SDS011;70990;50.618;7.346;2023-07-02T19:56:44;13.60;;;4.93;;
81544;SDS011;70990;50.618;7.346;2023-07-02T19:59:19;11.95;;;3.92;;